HTZA/ZNZ METAR and TAF weather

Enter ICAO airport designator
Station Type Date Time Source
HTZA METAR 2022/05/24 11:00 UTC NOAA

HTZA 241100Z 15011KT 9999 FEW022 31/23 Q1012 NOSIG


Station Type Date Time Source
HTZA Decoded METAR 2022/05/24 11:00 UTC NOAA

Zanzibar / Kisauni, Tanzania (HTZA) 06-13S 039-13E 15M
May 24, 2022 - 07:00 AM EDT / 2022.05.24 1100 UTC
Wind: from the SSE (150 degrees) at 13 MPH (11 KT):0
Visibility: greater than 7 mile(s):0
Sky conditions: mostly clear
Temperature: 87 F (31 C)
Heat index: 93.9 F (34.4 C):1
Dew Point: 73 F (23 C)
Relative Humidity: 62%
Pressure (altimeter): 29.88 in. Hg (1012 hPa)
ob: HTZA 241100Z 15011KT 9999 FEW022 31/23 Q1012 NOSIG
cycle: 11

Station Type Date Time Source
HTZA TAF 2022/05/24 12:27 UTC NOAA

HTZA 241100Z 2412/2512 14010KT 9999 FEW022
BECMG 2418/2420 00000KT
BECMG 2503/2505 21010KT BKN016

Example: see airport list